Epinal, Epinal Mirecourt Airport (LFSG)

NameEpinal Mirecourt Airport
CityEpinal
CountryFrance
ICAOLFSG
IATAEPL
Altitude330 m
CoordinatesGoogle Map
Live Air TrafficLiveATC.net
METARLFSG 221300Z AUTO 14008KT CAVOK 11/05 Q1003
2019-11-22 13:00:00 Wind: Southeast (140°) 4.12 m/s - Visibility: > 10000 m - Weather: CAVOK - Temperature: 11 °C - Dew point: 5 °C - Humidity: 66.8% - Pressure: 1003 hPa
Statistics

The table below shows the detailed information of all flights to/from Epinal, Epinal Mirecourt Airport (LFSG).